sensor_id;sensor_type;location;lat;lon;timestamp;temperature;humidity
45549;DHT22;31270;48.328;10.096;2023-08-21T00:01:46;23.10;99.90
45549;DHT22;31270;48.328;10.096;2023-08-21T00:04:12;23.10;99.90
45549;DHT22;31270;48.328;10.096;2023-08-21T00:06:37;23.10;99.90
45549;DHT22;31270;48.328;10.096;2023-08-21T00:09:03;23.10;99.90
45549;DHT22;31270;48.328;10.096;2023-08-21T00:11:29;23.10;99.90
45549;DHT22;31270;48.328;10.096;2023-08-21T00:14:00;23.00;99.90
45549;DHT22;31270;48.328;10.096;2023-08-21T00:16:26;23.00;99.90
45549;DHT22;31270;48.328;10.096;2023-08-21T00:18:53;23.00;99.90
45549;DHT22;31270;48.328;10.096;2023-08-21T00:21:19;22.90;99.90
45549;DHT22;31270;48.328;10.096;2023-08-21T00:23:45;22.90;99.90
45549;DHT22;31270;48.328;10.096;2023-08-21T00:26:10;22.90;99.90
45549;DHT22;31270;48.328;10.096;2023-08-21T00:28:36;22.90;99.90
45549;DHT22;31270;48.328;10.096;2023-08-21T00:31:02;22.90;99.90
45549;DHT22;31270;48.328;10.096;2023-08-21T00:33:30;22.80;99.90
45549;DHT22;31270;48.328;10.096;2023-08-21T00:35:56;22.80;99.90
45549;DHT22;31270;48.328;10.096;2023-08-21T00:38:22;22.70;99.90
45549;DHT22;31270;48.328;10.096;2023-08-21T00:40:48;22.70;99.90
45549;DHT22;31270;48.328;10.096;2023-08-21T00:43:14;22.60;99.90
45549;DHT22;31270;48.328;10.096;2023-08-21T00:45:41;22.60;99.90
45549;DHT22;31270;48.328;10.096;2023-08-21T00:48:08;22.60;99.90
45549;DHT22;31270;48.328;10.096;2023-08-21T00:50:35;22.50;99.90
45549;DHT22;31270;48.328;10.096;2023-08-21T00:53:01;22.60;99.90
45549;DHT22;31270;48.328;10.096;2023-08-21T00:55:29;22.60;99.90
45549;DHT22;31270;48.328;10.096;2023-08-21T00:57:55;22.50;99.90
45549;DHT22;31270;48.328;10.096;2023-08-21T01:00:21;22.50;99.90
45549;DHT22;31270;48.328;10.096;2023-08-21T01:02:47;22.40;99.90
45549;DHT22;31270;48.328;10.096;2023-08-21T01:05:13;22.40;99.90
45549;DHT22;31270;48.328;10.096;2023-08-21T01:07:53;22.40;99.90
45549;DHT22;31270;48.328;10.096;2023-08-21T01:13:41;22.30;99.90
45549;DHT22;31270;48.328;10.096;2023-08-21T01:16:09;22.30;99.90
45549;DHT22;31270;48.328;10.096;2023-08-21T01:18:43;22.20;99.90
45549;DHT22;31270;48.328;10.096;2023-08-21T01:21:11;22.20;99.90
45549;DHT22;31270;48.328;10.096;2023-08-21T01:23:37;22.20;99.90
45549;DHT22;31270;48.328;10.096;2023-08-21T01:26:04;22.20;99.90
45549;DHT22;31270;48.328;10.096;2023-08-21T01:28:31;22.20;99.90
45549;DHT22;31270;48.328;10.096;2023-08-21T01:33:30;22.10;99.90
45549;DHT22;31270;48.328;10.096;2023-08-21T01:35:58;22.10;99.90
45549;DHT22;31270;48.328;10.096;2023-08-21T01:38:33;22.00;99.90
45549;DHT22;31270;48.328;10.096;2023-08-21T01:40:59;22.00;99.90
45549;DHT22;31270;48.328;10.096;2023-08-21T01:43:24;21.90;99.90
45549;DHT22;31270;48.328;10.096;2023-08-21T01:45:50;21.90;99.90
45549;DHT22;31270;48.328;10.096;2023-08-21T01:48:15;21.90;99.90
45549;DHT22;31270;48.328;10.096;2023-08-21T01:50:41;21.80;99.90
45549;DHT22;31270;48.328;10.096;2023-08-21T01:53:06;21.80;99.90
45549;DHT22;31270;48.328;10.096;2023-08-21T01:55:32;21.80;99.90
45549;DHT22;31270;48.328;10.096;2023-08-21T01:57:58;21.80;99.90
45549;DHT22;31270;48.328;10.096;2023-08-21T02:00:23;21.70;99.90
45549;DHT22;31270;48.328;10.096;2023-08-21T02:02:49;21.70;99.90
45549;DHT22;31270;48.328;10.096;2023-08-21T02:05:14;21.70;99.90
45549;DHT22;31270;48.328;10.096;2023-08-21T02:07:40;21.70;99.90
45549;DHT22;31270;48.328;10.096;2023-08-21T02:10:06;21.70;99.90
45549;DHT22;31270;48.328;10.096;2023-08-21T02:12:32;21.60;99.90
45549;DHT22;31270;48.328;10.096;2023-08-21T02:14:57;21.60;99.90
45549;DHT22;31270;48.328;10.096;2023-08-21T02:17:26;21.60;99.90
45549;DHT22;31270;48.328;10.096;2023-08-21T02:19:51;21.70;99.90
45549;DHT22;31270;48.328;10.096;2023-08-21T02:22:17;21.60;99.90
45549;DHT22;31270;48.328;10.096;2023-08-21T02:24:42;21.60;99.90
45549;DHT22;31270;48.328;10.096;2023-08-21T02:27:08;21.50;99.90
45549;DHT22;31270;48.328;10.096;2023-08-21T02:29:34;21.50;99.90
45549;DHT22;31270;48.328;10.096;2023-08-21T02:31:59;21.40;99.90
45549;DHT22;31270;48.328;10.096;2023-08-21T02:34:25;21.60;99.90
45549;DHT22;31270;48.328;10.096;2023-08-21T02:36:52;21.40;99.90
45549;DHT22;31270;48.328;10.096;2023-08-21T02:39:17;21.50;99.90
45549;DHT22;31270;48.328;10.096;2023-08-21T02:41:43;21.30;99.90
45549;DHT22;31270;48.328;10.096;2023-08-21T02:44:08;21.30;99.90
45549;DHT22;31270;48.328;10.096;2023-08-21T02:46:34;21.40;99.90
45549;DHT22;31270;48.328;10.096;2023-08-21T02:49:01;21.40;99.90
45549;DHT22;31270;48.328;10.096;2023-08-21T02:51:27;21.30;99.90
45549;DHT22;31270;48.328;10.096;2023-08-21T02:53:53;21.30;99.90
45549;DHT22;31270;48.328;10.096;2023-08-21T02:56:19;21.30;99.90
45549;DHT22;31270;48.328;10.096;2023-08-21T02:58:45;21.20;99.90
45549;DHT22;31270;48.328;10.096;2023-08-21T03:01:10;21.30;99.90
45549;DHT22;31270;48.328;10.096;2023-08-21T03:03:36;21.20;99.90
45549;DHT22;31270;48.328;10.096;2023-08-21T03:06:02;21.30;99.90
45549;DHT22;31270;48.328;10.096;2023-08-21T03:08:27;21.10;99.90
45549;DHT22;31270;48.328;10.096;2023-08-21T03:10:53;21.10;99.90
45549;DHT22;31270;48.328;10.096;2023-08-21T03:13:18;21.10;99.90
45549;DHT22;31270;48.328;10.096;2023-08-21T03:15:45;21.10;99.90
45549;DHT22;31270;48.328;10.096;2023-08-21T03:18:10;21.10;99.90
45549;DHT22;31270;48.328;10.096;2023-08-21T03:20:36;21.10;99.90
45549;DHT22;31270;48.328;10.096;2023-08-21T03:23:02;21.00;99.90
45549;DHT22;31270;48.328;10.096;2023-08-21T03:25:28;21.00;99.90
45549;DHT22;31270;48.328;10.096;2023-08-21T03:27:53;21.10;99.90
45549;DHT22;31270;48.328;10.096;2023-08-21T03:30:19;21.10;99.90
45549;DHT22;31270;48.328;10.096;2023-08-21T03:32:45;21.00;99.90
45549;DHT22;31270;48.328;10.096;2023-08-21T03:35:10;21.00;99.90
45549;DHT22;31270;48.328;10.096;2023-08-21T03:37:36;20.90;99.90
45549;DHT22;31270;48.328;10.096;2023-08-21T03:40:05;20.90;99.90
45549;DHT22;31270;48.328;10.096;2023-08-21T03:42:31;20.90;99.90
45549;DHT22;31270;48.328;10.096;2023-08-21T03:44:56;20.90;99.90
45549;DHT22;31270;48.328;10.096;2023-08-21T03:47:22;20.80;99.90
45549;DHT22;31270;48.328;10.096;2023-08-21T03:49:48;20.80;99.90
45549;DHT22;31270;48.328;10.096;2023-08-21T03:52:13;20.80;99.90
45549;DHT22;31270;48.328;10.096;2023-08-21T03:54:39;20.90;99.90
45549;DHT22;31270;48.328;10.096;2023-08-21T03:57:05;20.80;99.90
45549;DHT22;31270;48.328;10.096;2023-08-21T03:59:30;20.90;99.90
45549;DHT22;31270;48.328;10.096;2023-08-21T04:01:56;20.80;99.90
45549;DHT22;31270;48.328;10.096;2023-08-21T04:04:22;20.80;99.90
45549;DHT22;31270;48.328;10.096;2023-08-21T04:06:47;20.80;99.90
45549;DHT22;31270;48.328;10.096;2023-08-21T04:09:13;20.70;99.90
45549;DHT22;31270;48.328;10.096;2023-08-21T04:11:38;20.70;99.90
45549;DHT22;31270;48.328;10.096;2023-08-21T04:14:04;20.70;99.90
45549;DHT22;31270;48.328;10.096;2023-08-21T04:16:30;20.70;99.90
45549;DHT22;31270;48.328;10.096;2023-08-21T04:18:56;20.70;99.90
45549;DHT22;31270;48.328;10.096;2023-08-21T04:21:22;20.70;99.90
45549;DHT22;31270;48.328;10.096;2023-08-21T04:23:48;20.70;99.90
45549;DHT22;31270;48.328;10.096;2023-08-21T04:26:13;20.70;99.90
45549;DHT22;31270;48.328;10.096;2023-08-21T04:28:39;20.60;99.90
45549;DHT22;31270;48.328;10.096;2023-08-21T04:31:07;20.60;99.90
45549;DHT22;31270;48.328;10.096;2023-08-21T04:33:34;20.50;99.90
45549;DHT22;31270;48.328;10.096;2023-08-21T04:36:01;20.70;99.90
45549;DHT22;31270;48.328;10.096;2023-08-21T04:38:27;20.60;99.90
45549;DHT22;31270;48.328;10.096;2023-08-21T04:40:52;20.70;99.90
45549;DHT22;31270;48.328;10.096;2023-08-21T04:43:18;20.70;99.90
45549;DHT22;31270;48.328;10.096;2023-08-21T04:48:14;20.70;99.90
45549;DHT22;31270;48.328;10.096;2023-08-21T04:50:39;20.70;99.90
45549;DHT22;31270;48.328;10.096;2023-08-21T04:53:05;20.80;99.90
45549;DHT22;31270;48.328;10.096;2023-08-21T04:55:31;20.80;99.90
45549;DHT22;31270;48.328;10.096;2023-08-21T04:57:57;20.80;99.90
45549;DHT22;31270;48.328;10.096;2023-08-21T05:00:22;20.90;99.90
45549;DHT22;31270;48.328;10.096;2023-08-21T05:02:48;20.90;99.90
45549;DHT22;31270;48.328;10.096;2023-08-21T05:05:14;20.90;99.90
45549;DHT22;31270;48.328;10.096;2023-08-21T05:07:39;21.00;99.90
45549;DHT22;31270;48.328;10.096;2023-08-21T05:10:05;21.10;99.90
45549;DHT22;31270;48.328;10.096;2023-08-21T05:12:31;21.20;99.90
45549;DHT22;31270;48.328;10.096;2023-08-21T05:14:57;21.20;99.90
45549;DHT22;31270;48.328;10.096;2023-08-21T05:17:24;21.20;99.90
45549;DHT22;31270;48.328;10.096;2023-08-21T05:19:51;21.30;99.90
45549;DHT22;31270;48.328;10.096;2023-08-21T05:22:17;21.40;99.90
45549;DHT22;31270;48.328;10.096;2023-08-21T05:24:42;21.50;99.90
45549;DHT22;31270;48.328;10.096;2023-08-21T05:27:08;21.60;99.90
45549;DHT22;31270;48.328;10.096;2023-08-21T05:29:34;21.60;99.90
45549;DHT22;31270;48.328;10.096;2023-08-21T05:32:00;21.90;99.90
45549;DHT22;31270;48.328;10.096;2023-08-21T05:34:26;21.90;99.90
45549;DHT22;31270;48.328;10.096;2023-08-21T05:36:52;21.90;99.90
45549;DHT22;31270;48.328;10.096;2023-08-21T05:39:20;22.10;99.90
45549;DHT22;31270;48.328;10.096;2023-08-21T05:41:46;22.10;99.90
45549;DHT22;31270;48.328;10.096;2023-08-21T05:44:11;22.30;99.90
45549;DHT22;31270;48.328;10.096;2023-08-21T05:46:37;22.40;99.90
45549;DHT22;31270;48.328;10.096;2023-08-21T05:49:03;22.40;99.90
45549;DHT22;31270;48.328;10.096;2023-08-21T05:51:29;22.60;99.90
45549;DHT22;31270;48.328;10.096;2023-08-21T05:53:55;22.60;99.90
45549;DHT22;31270;48.328;10.096;2023-08-21T05:56:22;22.80;99.90
45549;DHT22;31270;48.328;10.096;2023-08-21T05:58:47;22.80;99.90
45549;DHT22;31270;48.328;10.096;2023-08-21T06:01:13;23.00;99.90
45549;DHT22;31270;48.328;10.096;2023-08-21T06:03:39;23.10;99.90
45549;DHT22;31270;48.328;10.096;2023-08-21T06:06:04;23.20;99.90
45549;DHT22;31270;48.328;10.096;2023-08-21T06:08:30;23.30;99.90
45549;DHT22;31270;48.328;10.096;2023-08-21T06:10:56;23.50;99.90
45549;DHT22;31270;48.328;10.096;2023-08-21T06:13:22;23.60;99.90
45549;DHT22;31270;48.328;10.096;2023-08-21T06:15:47;23.80;99.90
45549;DHT22;31270;48.328;10.096;2023-08-21T06:18:14;23.90;99.90
45549;DHT22;31270;48.328;10.096;2023-08-21T06:20:42;24.10;99.90
45549;DHT22;31270;48.328;10.096;2023-08-21T06:23:10;24.10;99.90
45549;DHT22;31270;48.328;10.096;2023-08-21T06:25:36;24.30;99.90
45549;DHT22;31270;48.328;10.096;2023-08-21T06:28:01;24.40;99.90
45549;DHT22;31270;48.328;10.096;2023-08-21T06:30:27;24.60;99.90
45549;DHT22;31270;48.328;10.096;2023-08-21T06:32:53;24.80;99.90
45549;DHT22;31270;48.328;10.096;2023-08-21T06:35:19;24.90;99.90
45549;DHT22;31270;48.328;10.096;2023-08-21T06:37:45;25.20;99.90
45549;DHT22;31270;48.328;10.096;2023-08-21T06:40:10;25.10;99.90
45549;DHT22;31270;48.328;10.096;2023-08-21T06:42:36;25.20;99.90
45549;DHT22;31270;48.328;10.096;2023-08-21T06:45:04;25.50;99.90
45549;DHT22;31270;48.328;10.096;2023-08-21T06:47:31;25.50;99.90
45549;DHT22;31270;48.328;10.096;2023-08-21T06:49:57;25.60;99.90
45549;DHT22;31270;48.328;10.096;2023-08-21T06:52:22;25.90;99.90
45549;DHT22;31270;48.328;10.096;2023-08-21T06:54:48;26.10;99.90
45549;DHT22;31270;48.328;10.096;2023-08-21T06:57:14;26.10;99.90
45549;DHT22;31270;48.328;10.096;2023-08-21T06:59:39;26.40;99.90
45549;DHT22;31270;48.328;10.096;2023-08-21T07:02:05;26.40;99.90
45549;DHT22;31270;48.328;10.096;2023-08-21T07:04:32;26.60;99.90
45549;DHT22;31270;48.328;10.096;2023-08-21T07:07:00;26.70;99.90
45549;DHT22;31270;48.328;10.096;2023-08-21T07:09:26;26.80;99.90
45549;DHT22;31270;48.328;10.096;2023-08-21T07:11:52;27.10;99.90
45549;DHT22;31270;48.328;10.096;2023-08-21T07:14:17;27.20;99.90
45549;DHT22;31270;48.328;10.096;2023-08-21T07:16:43;27.40;99.90
45549;DHT22;31270;48.328;10.096;2023-08-21T07:19:09;27.40;99.90
45549;DHT22;31270;48.328;10.096;2023-08-21T07:21:35;27.60;99.90
45549;DHT22;31270;48.328;10.096;2023-08-21T07:24:05;27.80;99.90
45549;DHT22;31270;48.328;10.096;2023-08-21T07:26:31;28.10;99.90
45549;DHT22;31270;48.328;10.096;2023-08-21T07:28:56;28.30;99.90
45549;DHT22;31270;48.328;10.096;2023-08-21T07:31:22;28.40;99.90
45549;DHT22;31270;48.328;10.096;2023-08-21T07:33:48;28.50;99.90
45549;DHT22;31270;48.328;10.096;2023-08-21T07:36:14;28.40;99.90
45549;DHT22;31270;48.328;10.096;2023-08-21T07:38:43;28.50;99.90
45549;DHT22;31270;48.328;10.096;2023-08-21T07:41:10;28.50;99.90
45549;DHT22;31270;48.328;10.096;2023-08-21T07:43:37;28.70;99.90
45549;DHT22;31270;48.328;10.096;2023-08-21T07:46:04;28.40;99.90
45549;DHT22;31270;48.328;10.096;2023-08-21T07:48:31;28.40;99.90
45549;DHT22;31270;48.328;10.096;2023-08-21T07:50:57;28.60;99.90
45549;DHT22;31270;48.328;10.096;2023-08-21T07:53:24;28.70;99.90
45549;DHT22;31270;48.328;10.096;2023-08-21T07:55:50;28.60;99.90
45549;DHT22;31270;48.328;10.096;2023-08-21T07:58:16;28.80;99.90
45549;DHT22;31270;48.328;10.096;2023-08-21T08:00:42;28.70;99.90
45549;DHT22;31270;48.328;10.096;2023-08-21T08:03:08;28.80;99.90
45549;DHT22;31270;48.328;10.096;2023-08-21T08:05:35;28.70;99.90
45549;DHT22;31270;48.328;10.096;2023-08-21T08:08:00;28.70;99.90
45549;DHT22;31270;48.328;10.096;2023-08-21T08:10:26;28.90;99.90
45549;DHT22;31270;48.328;10.096;2023-08-21T08:12:52;29.10;99.90
45549;DHT22;31270;48.328;10.096;2023-08-21T08:15:18;29.30;99.90
45549;DHT22;31270;48.328;10.096;2023-08-21T08:17:44;29.50;99.90
45549;DHT22;31270;48.328;10.096;2023-08-21T08:20:13;29.90;99.90
45549;DHT22;31270;48.328;10.096;2023-08-21T08:22:42;30.20;99.90
45549;DHT22;31270;48.328;10.096;2023-08-21T08:25:07;30.00;99.90
45549;DHT22;31270;48.328;10.096;2023-08-21T08:27:33;30.20;99.90
45549;DHT22;31270;48.328;10.096;2023-08-21T08:29:59;30.40;99.90
45549;DHT22;31270;48.328;10.096;2023-08-21T08:32:25;30.60;99.90
45549;DHT22;31270;48.328;10.096;2023-08-21T08:34:54;30.90;99.90
45549;DHT22;31270;48.328;10.096;2023-08-21T08:37:20;31.20;99.90
45549;DHT22;31270;48.328;10.096;2023-08-21T08:39:49;31.40;99.90
45549;DHT22;31270;48.328;10.096;2023-08-21T08:42:15;31.60;99.90
45549;DHT22;31270;48.328;10.096;2023-08-21T08:44:42;31.60;99.90
45549;DHT22;31270;48.328;10.096;2023-08-21T08:47:11;31.70;99.90
45549;DHT22;31270;48.328;10.096;2023-08-21T08:49:37;31.50;99.90
45549;DHT22;31270;48.328;10.096;2023-08-21T08:52:03;31.50;99.90
45549;DHT22;31270;48.328;10.096;2023-08-21T08:54:30;31.60;99.90
45549;DHT22;31270;48.328;10.096;2023-08-21T08:56:56;31.60;99.90
45549;DHT22;31270;48.328;10.096;2023-08-21T08:59:22;31.80;99.90
45549;DHT22;31270;48.328;10.096;2023-08-21T09:01:48;32.10;99.90
45549;DHT22;31270;48.328;10.096;2023-08-21T09:04:13;32.50;99.90
45549;DHT22;31270;48.328;10.096;2023-08-21T09:06:39;32.80;99.90
45549;DHT22;31270;48.328;10.096;2023-08-21T09:09:05;32.90;99.90
45549;DHT22;31270;48.328;10.096;2023-08-21T09:11:32;33.00;99.90
45549;DHT22;31270;48.328;10.096;2023-08-21T09:13:58;32.70;99.90
45549;DHT22;31270;48.328;10.096;2023-08-21T09:16:25;32.70;99.90
45549;DHT22;31270;48.328;10.096;2023-08-21T09:18:53;32.90;99.90
45549;DHT22;31270;48.328;10.096;2023-08-21T09:21:20;32.90;99.90
45549;DHT22;31270;48.328;10.096;2023-08-21T09:23:46;33.10;99.90
45549;DHT22;31270;48.328;10.096;2023-08-21T09:26:20;33.20;99.90
45549;DHT22;31270;48.328;10.096;2023-08-21T09:28:47;33.40;99.90
45549;DHT22;31270;48.328;10.096;2023-08-21T09:31:13;33.50;99.90
45549;DHT22;31270;48.328;10.096;2023-08-21T09:33:38;33.30;99.90
45549;DHT22;31270;48.328;10.096;2023-08-21T09:36:04;33.30;99.90
45549;DHT22;31270;48.328;10.096;2023-08-21T09:38:38;33.20;99.90
45549;DHT22;31270;48.328;10.096;2023-08-21T09:41:05;33.00;99.90
45549;DHT22;31270;48.328;10.096;2023-08-21T09:43:32;33.30;99.90
45549;DHT22;31270;48.328;10.096;2023-08-21T09:45:58;33.40;99.90
45549;DHT22;31270;48.328;10.096;2023-08-21T09:48:27;33.40;99.90
45549;DHT22;31270;48.328;10.096;2023-08-21T09:50:53;33.40;99.90
45549;DHT22;31270;48.328;10.096;2023-08-21T09:53:26;33.60;99.90
45549;DHT22;31270;48.328;10.096;2023-08-21T09:55:55;33.80;99.90
45549;DHT22;31270;48.328;10.096;2023-08-21T09:58:22;34.00;99.90
45549;DHT22;31270;48.328;10.096;2023-08-21T10:00:49;34.00;99.90
45549;DHT22;31270;48.328;10.096;2023-08-21T10:03:18;34.20;99.90
45549;DHT22;31270;48.328;10.096;2023-08-21T10:05:45;34.30;99.90
45549;DHT22;31270;48.328;10.096;2023-08-21T10:08:15;34.30;99.90
45549;DHT22;31270;48.328;10.096;2023-08-21T10:10:41;34.30;99.90
45549;DHT22;31270;48.328;10.096;2023-08-21T10:13:08;34.30;99.90
45549;DHT22;31270;48.328;10.096;2023-08-21T10:15:36;34.60;99.90
45549;DHT22;31270;48.328;10.096;2023-08-21T10:18:24;34.70;99.90
45549;DHT22;31270;48.328;10.096;2023-08-21T10:20:54;34.60;99.90
45549;DHT22;31270;48.328;10.096;2023-08-21T10:23:29;34.60;99.90
45549;DHT22;31270;48.328;10.096;2023-08-21T10:25:58;34.50;99.90
45549;DHT22;31270;48.328;10.096;2023-08-21T10:28:24;34.60;99.90
45549;DHT22;31270;48.328;10.096;2023-08-21T10:30:50;34.20;99.90
45549;DHT22;31270;48.328;10.096;2023-08-21T10:33:17;34.20;99.90
45549;DHT22;31270;48.328;10.096;2023-08-21T10:35:44;34.40;99.90
45549;DHT22;31270;48.328;10.096;2023-08-21T10:43:46;34.30;99.90
45549;DHT22;31270;48.328;10.096;2023-08-21T10:46:12;34.10;99.90
45549;DHT22;31270;48.328;10.096;2023-08-21T10:48:39;33.80;99.90
45549;DHT22;31270;48.328;10.096;2023-08-21T10:51:06;34.00;99.90
45549;DHT22;31270;48.328;10.096;2023-08-21T10:53:33;34.30;99.90
45549;DHT22;31270;48.328;10.096;2023-08-21T10:56:05;34.30;99.90
45549;DHT22;31270;48.328;10.096;2023-08-21T10:58:50;34.60;99.90
45549;DHT22;31270;48.328;10.096;2023-08-21T11:01:17;34.80;99.90
45549;DHT22;31270;48.328;10.096;2023-08-21T11:03:46;34.90;99.90
45549;DHT22;31270;48.328;10.096;2023-08-21T11:06:12;35.30;99.90
45549;DHT22;31270;48.328;10.096;2023-08-21T11:08:37;35.20;99.90
45549;DHT22;31270;48.328;10.096;2023-08-21T11:11:05;35.40;99.90
45549;DHT22;31270;48.328;10.096;2023-08-21T11:13:31;35.50;99.90
45549;DHT22;31270;48.328;10.096;2023-08-21T11:16:05;35.40;99.90
45549;DHT22;31270;48.328;10.096;2023-08-21T11:18:38;35.50;99.90
45549;DHT22;31270;48.328;10.096;2023-08-21T11:21:10;35.70;99.90
45549;DHT22;31270;48.328;10.096;2023-08-21T11:23:39;35.90;99.90
45549;DHT22;31270;48.328;10.096;2023-08-21T11:26:06;36.00;99.90
45549;DHT22;31270;48.328;10.096;2023-08-21T11:28:32;35.80;99.90
45549;DHT22;31270;48.328;10.096;2023-08-21T11:30:59;35.60;99.90
45549;DHT22;31270;48.328;10.096;2023-08-21T11:33:28;35.70;99.90
45549;DHT22;31270;48.328;10.096;2023-08-21T11:35:55;36.00;99.90
45549;DHT22;31270;48.328;10.096;2023-08-21T11:38:24;36.30;99.90
45549;DHT22;31270;48.328;10.096;2023-08-21T11:41:04;36.40;99.90
45549;DHT22;31270;48.328;10.096;2023-08-21T11:43:38;36.50;99.90
45549;DHT22;31270;48.328;10.096;2023-08-21T11:46:05;36.70;99.90
45549;DHT22;31270;48.328;10.096;2023-08-21T11:48:32;37.00;99.90
45549;DHT22;31270;48.328;10.096;2023-08-21T11:50:58;36.80;99.90
45549;DHT22;31270;48.328;10.096;2023-08-21T11:53:51;36.80;99.90
45549;DHT22;31270;48.328;10.096;2023-08-21T11:56:17;36.80;99.90
45549;DHT22;31270;48.328;10.096;2023-08-21T11:58:46;37.00;99.90
45549;DHT22;31270;48.328;10.096;2023-08-21T12:01:20;37.10;99.40
45549;DHT22;31270;48.328;10.096;2023-08-21T12:03:45;37.50;99.90
45549;DHT22;31270;48.328;10.096;2023-08-21T12:06:12;37.90;99.90
45549;DHT22;31270;48.328;10.096;2023-08-21T12:08:39;38.10;99.90
45549;DHT22;31270;48.328;10.096;2023-08-21T12:11:05;38.20;99.60
45549;DHT22;31270;48.328;10.096;2023-08-21T12:13:31;38.40;99.70
45549;DHT22;31270;48.328;10.096;2023-08-21T12:15:57;38.20;97.30
45549;DHT22;31270;48.328;10.096;2023-08-21T12:18:23;38.10;96.40
45549;DHT22;31270;48.328;10.096;2023-08-21T12:20:49;37.80;95.30
45549;DHT22;31270;48.328;10.096;2023-08-21T12:23:15;37.70;96.00
45549;DHT22;31270;48.328;10.096;2023-08-21T12:25:41;37.60;95.60
45549;DHT22;31270;48.328;10.096;2023-08-21T12:28:07;37.60;95.60
45549;DHT22;31270;48.328;10.096;2023-08-21T12:30:34;37.70;95.20
45549;DHT22;31270;48.328;10.096;2023-08-21T12:32:59;37.80;97.00
45549;DHT22;31270;48.328;10.096;2023-08-21T12:35:25;37.50;94.50
45549;DHT22;31270;48.328;10.096;2023-08-21T12:37:55;37.30;95.10
45549;DHT22;31270;48.328;10.096;2023-08-21T12:40:21;37.20;96.70
45549;DHT22;31270;48.328;10.096;2023-08-21T12:42:47;37.30;97.30
45549;DHT22;31270;48.328;10.096;2023-08-21T12:45:13;37.50;97.20
45549;DHT22;31270;48.328;10.096;2023-08-21T12:47:38;37.90;97.50
45549;DHT22;31270;48.328;10.096;2023-08-21T12:50:05;38.40;95.90
45549;DHT22;31270;48.328;10.096;2023-08-21T12:52:31;38.60;95.20
45549;DHT22;31270;48.328;10.096;2023-08-21T12:54:56;38.30;94.20
45549;DHT22;31270;48.328;10.096;2023-08-21T12:57:22;38.20;95.10
45549;DHT22;31270;48.328;10.096;2023-08-21T12:59:48;38.20;93.70
45549;DHT22;31270;48.328;10.096;2023-08-21T13:02:13;38.00;93.60
45549;DHT22;31270;48.328;10.096;2023-08-21T13:04:39;37.90;95.10
45549;DHT22;31270;48.328;10.096;2023-08-21T13:07:05;37.90;95.00
45549;DHT22;31270;48.328;10.096;2023-08-21T13:09:30;38.20;94.30
45549;DHT22;31270;48.328;10.096;2023-08-21T13:11:56;38.50;96.10
45549;DHT22;31270;48.328;10.096;2023-08-21T13:14:21;38.40;95.40
45549;DHT22;31270;48.328;10.096;2023-08-21T13:16:47;38.60;95.30
45549;DHT22;31270;48.328;10.096;2023-08-21T13:19:13;38.80;93.20
45549;DHT22;31270;48.328;10.096;2023-08-21T13:21:38;38.60;94.00
45549;DHT22;31270;48.328;10.096;2023-08-21T13:24:04;38.80;93.50
45549;DHT22;31270;48.328;10.096;2023-08-21T13:26:30;38.60;91.80
45549;DHT22;31270;48.328;10.096;2023-08-21T13:28:56;38.10;92.30
45549;DHT22;31270;48.328;10.096;2023-08-21T13:31:22;37.80;91.80
45549;DHT22;31270;48.328;10.096;2023-08-21T13:33:48;37.60;93.00
45549;DHT22;31270;48.328;10.096;2023-08-21T13:36:15;37.50;92.40
45549;DHT22;31270;48.328;10.096;2023-08-21T13:38:42;37.10;93.00
45549;DHT22;31270;48.328;10.096;2023-08-21T13:41:07;36.80;92.80
45549;DHT22;31270;48.328;10.096;2023-08-21T13:43:34;36.60;93.20
45549;DHT22;31270;48.328;10.096;2023-08-21T13:46:02;36.60;93.50
45549;DHT22;31270;48.328;10.096;2023-08-21T13:48:32;36.50;93.50
45549;DHT22;31270;48.328;10.096;2023-08-21T13:50:57;36.60;94.60
45549;DHT22;31270;48.328;10.096;2023-08-21T13:53:23;36.60;94.00
45549;DHT22;31270;48.328;10.096;2023-08-21T13:55:52;36.90;95.40
45549;DHT22;31270;48.328;10.096;2023-08-21T13:58:18;37.00;93.50
45549;DHT22;31270;48.328;10.096;2023-08-21T14:00:43;37.10;93.50
45549;DHT22;31270;48.328;10.096;2023-08-21T14:03:10;37.10;94.80
45549;DHT22;31270;48.328;10.096;2023-08-21T14:05:35;37.40;93.10
45549;DHT22;31270;48.328;10.096;2023-08-21T14:08:01;37.40;94.60
45549;DHT22;31270;48.328;10.096;2023-08-21T14:10:27;37.50;93.80
45549;DHT22;31270;48.328;10.096;2023-08-21T14:12:52;37.50;92.90
45549;DHT22;31270;48.328;10.096;2023-08-21T14:15:18;37.40;94.60
45549;DHT22;31270;48.328;10.096;2023-08-21T14:17:44;37.00;92.70
45549;DHT22;31270;48.328;10.096;2023-08-21T14:20:10;36.70;92.50
45549;DHT22;31270;48.328;10.096;2023-08-21T14:22:37;36.70;92.70
45549;DHT22;31270;48.328;10.096;2023-08-21T14:25:03;36.70;94.40
45549;DHT22;31270;48.328;10.096;2023-08-21T14:27:31;37.00;96.90
45549;DHT22;31270;48.328;10.096;2023-08-21T14:29:57;37.30;94.50
45549;DHT22;31270;48.328;10.096;2023-08-21T14:32:22;37.10;93.90
45549;DHT22;31270;48.328;10.096;2023-08-21T14:34:48;36.90;93.70
45549;DHT22;31270;48.328;10.096;2023-08-21T14:37:14;36.90;93.70
45549;DHT22;31270;48.328;10.096;2023-08-21T14:39:41;36.70;93.50
45549;DHT22;31270;48.328;10.096;2023-08-21T14:42:08;37.00;94.00
45549;DHT22;31270;48.328;10.096;2023-08-21T14:44:34;37.30;94.80
45549;DHT22;31270;48.328;10.096;2023-08-21T14:46:59;37.20;93.00
45549;DHT22;31270;48.328;10.096;2023-08-21T14:49:25;37.20;93.10
45549;DHT22;31270;48.328;10.096;2023-08-21T14:51:51;37.00;93.70
45549;DHT22;31270;48.328;10.096;2023-08-21T14:54:17;36.80;94.40
45549;DHT22;31270;48.328;10.096;2023-08-21T14:56:43;36.90;93.60
45549;DHT22;31270;48.328;10.096;2023-08-21T14:59:09;36.70;92.60
45549;DHT22;31270;48.328;10.096;2023-08-21T15:01:37;36.50;94.00
45549;DHT22;31270;48.328;10.096;2023-08-21T15:04:03;36.60;93.90
45549;DHT22;31270;48.328;10.096;2023-08-21T15:06:29;36.40;92.50
45549;DHT22;31270;48.328;10.096;2023-08-21T15:08:54;36.30;92.20
45549;DHT22;31270;48.328;10.096;2023-08-21T15:11:20;36.20;93.10
45549;DHT22;31270;48.328;10.096;2023-08-21T15:13:46;36.00;93.20
45549;DHT22;31270;48.328;10.096;2023-08-21T15:16:11;35.90;93.20
45549;DHT22;31270;48.328;10.096;2023-08-21T15:18:37;35.90;95.20
45549;DHT22;31270;48.328;10.096;2023-08-21T15:21:02;35.90;95.20
45549;DHT22;31270;48.328;10.096;2023-08-21T15:23:28;36.00;95.80
45549;DHT22;31270;48.328;10.096;2023-08-21T15:25:54;35.90;94.10